RYR19KL GCLP-LEVC
Flight info
| Callsign | RYR19KL |
|---|---|
| Flight time | 2h 12m |
| Altitude | 36000 |
| Route | KORAL UG5 SONSO DCT NIRAL UN871 OSDAM UM985 BARPA DCT XAVIR DCT PIMOS DCT RIXUR DCT PEPAS DCT ARPEX DCT KOSEL DCT BUDIT DCT ETURA DCT XEBAR DCT POBOS DCT ASTRO |
| Aircraft | B738/M-SDE2E3FGHIRWXY/LB1 |
Departure
| Time | 2026-05-07 15:45 |
|---|---|
| Airport | Gran Canaria Airport (GCLP) |
Arrival
| Time | 2026-05-07 17:58 |
|---|---|
| Airport | Valencia Airport (LEVC) |
| Time | Latitude | Longitude | Altitude | Speed | Heading |
|---|---|---|---|---|---|
| 2026-05-07 15:25 | 27.93378 | -15.39019 | 84 ft | 0 kts | 291° |
| 2026-05-07 15:36 | 27.93370 | -15.38995 | 87 ft | 4 kts | 285° |
| 2026-05-07 15:36 | 27.93365 | -15.38966 | 85 ft | 4 kts | 271° |
| 2026-05-07 15:36 | 27.93369 | -15.38937 | 84 ft | 4 kts | 236° |
| 2026-05-07 15:37 | 27.93380 | -15.38925 | 85 ft | 1 kts | 201° |
| 2026-05-07 15:37 | 27.93383 | -15.38924 | 84 ft | 1 kts | 201° |
| 2026-05-07 15:39 | 27.93372 | -15.38928 | 90 ft | 3 kts | 200° |
| 2026-05-07 15:39 | 27.93334 | -15.38944 | 85 ft | 8 kts | 201° |
| 2026-05-07 15:39 | 27.93257 | -15.38982 | 83 ft | 16 kts | 200° |
| 2026-05-07 15:39 | 27.93190 | -15.39004 | 83 ft | 0 kts | 194° |
| 2026-05-07 15:40 | 27.93171 | -15.39014 | 84 ft | 6 kts | 204° |
| 2026-05-07 15:40 | 27.93110 | -15.39043 | 82 ft | 13 kts | 201° |
| 2026-05-07 15:40 | 27.93006 | -15.39089 | 81 ft | 19 kts | 202° |
| 2026-05-07 15:40 | 27.92875 | -15.39120 | 87 ft | 18 kts | 135° |
| 2026-05-07 15:41 | 27.92825 | -15.39022 | 84 ft | 9 kts | 184° |
| 2026-05-07 15:41 | 27.92767 | -15.39044 | 88 ft | 9 kts | 202° |
| 2026-05-07 15:41 | 27.92697 | -15.39074 | 88 ft | 14 kts | 201° |
| 2026-05-07 15:41 | 27.92592 | -15.39121 | 93 ft | 19 kts | 201° |
| 2026-05-07 15:42 | 27.92449 | -15.39184 | 96 ft | 25 kts | 201° |
| 2026-05-07 15:42 | 27.92276 | -15.39260 | 100 ft | 27 kts | 201° |
| 2026-05-07 15:42 | 27.92108 | -15.39334 | 95 ft | 25 kts | 200° |
| 2026-05-07 15:42 | 27.91956 | -15.39397 | 92 ft | 19 kts | 184° |
| 2026-05-07 15:43 | 27.91907 | -15.39357 | 89 ft | 0 kts | 111° |
| 2026-05-07 15:43 | 27.91902 | -15.39340 | 88 ft | 5 kts | 105° |
| 2026-05-07 15:44 | 27.91906 | -15.39284 | 86 ft | 10 kts | 77° |
| 2026-05-07 15:44 | 27.91916 | -15.39220 | 88 ft | 7 kts | 22° |
| 2026-05-07 15:44 | 27.91929 | -15.39215 | 86 ft | 0 kts | 20° |
| 2026-05-07 15:44 | 27.91932 | -15.39214 | 86 ft | 5 kts | 20° |
| 2026-05-07 15:45 | 27.92179 | -15.39105 | 82 ft | 73 kts | 21° |
| 2026-05-07 15:45 | 27.92850 | -15.38809 | 59 ft | 132 kts | 22° |
| 2026-05-07 15:45 | 27.93839 | -15.38362 | 236 ft | 166 kts | 22° |
| 2026-05-07 15:45 | 27.94904 | -15.37890 | 1005 ft | 164 kts | 19° |
| 2026-05-07 15:46 | 27.97165 | -15.36901 | 1913 ft | 196 kts | 19° |
| 2026-05-07 15:46 | 27.98519 | -15.36316 | 2103 ft | 220 kts | 19° |
| 2026-05-07 15:46 | 28.00035 | -15.35667 | 2322 ft | 243 kts | 19° |
| 2026-05-07 15:47 | 28.01643 | -15.34981 | 2948 ft | 252 kts | 18° |
| 2026-05-07 15:47 | 28.03270 | -15.34289 | 3526 ft | 248 kts | 18° |
| 2026-05-07 15:47 | 28.04877 | -15.33598 | 3886 ft | 250 kts | 18° |
| 2026-05-07 15:47 | 28.06525 | -15.32882 | 3973 ft | 255 kts | 18° |
| 2026-05-07 15:48 | 28.08194 | -15.32155 | 4016 ft | 259 kts | 18° |
| 2026-05-07 15:48 | 28.09879 | -15.31421 | 4367 ft | 261 kts | 17° |
| 2026-05-07 15:48 | 28.11596 | -15.30676 | 5047 ft | 267 kts | 17° |
| 2026-05-07 15:48 | 28.13342 | -15.29907 | 5781 ft | 272 kts | 20° |
| 2026-05-07 15:49 | 28.14868 | -15.28569 | 6439 ft | 288 kts | 49° |
| 2026-05-07 15:49 | 28.16024 | -15.26695 | 7152 ft | 292 kts | 53° |
| 2026-05-07 15:49 | 28.17149 | -15.24765 | 7840 ft | 295 kts | 54° |
| 2026-05-07 15:49 | 28.18280 | -15.22802 | 8516 ft | 299 kts | 54° |
| 2026-05-07 15:50 | 28.19424 | -15.20816 | 9234 ft | 302 kts | 55° |
| 2026-05-07 15:50 | 28.20584 | -15.18808 | 9924 ft | 307 kts | 55° |
| 2026-05-07 15:50 | 28.21772 | -15.16757 | 10357 ft | 320 kts | 55° |
| 2026-05-07 15:50 | 28.23036 | -15.14580 | 10509 ft | 341 kts | 55° |
| 2026-05-07 15:51 | 28.24385 | -15.12262 | 10660 ft | 362 kts | 55° |
| 2026-05-07 15:51 | 28.25809 | -15.09817 | 10807 ft | 381 kts | 55° |
| 2026-05-07 15:51 | 28.27305 | -15.07250 | 10934 ft | 399 kts | 56° |
| 2026-05-07 15:51 | 28.28864 | -15.04571 | 11103 ft | 413 kts | 56° |
| 2026-05-07 15:52 | 28.30460 | -15.01829 | 11475 ft | 420 kts | 56° |
| 2026-05-07 15:52 | 28.32073 | -14.99053 | 11944 ft | 423 kts | 56° |
| 2026-05-07 15:52 | 28.33703 | -14.96248 | 12406 ft | 428 kts | 56° |
| 2026-05-07 15:52 | 28.35348 | -14.93414 | 12876 ft | 432 kts | 56° |
| 2026-05-07 15:53 | 28.37012 | -14.90548 | 13299 ft | 438 kts | 56° |
| 2026-05-07 15:53 | 28.38695 | -14.87646 | 13728 ft | 442 kts | 56° |
| 2026-05-07 15:53 | 28.40372 | -14.84752 | 14152 ft | 446 kts | 56° |
| 2026-05-07 15:53 | 28.42105 | -14.81760 | 14591 ft | 449 kts | 56° |
| 2026-05-07 15:54 | 28.43828 | -14.78784 | 15034 ft | 453 kts | 56° |
| 2026-05-07 15:54 | 28.45545 | -14.75817 | 15456 ft | 457 kts | 56° |
| 2026-05-07 15:54 | 28.47317 | -14.72750 | 15886 ft | 460 kts | 56° |
| 2026-05-07 15:54 | 28.49059 | -14.69734 | 16303 ft | 464 kts | 56° |
| 2026-05-07 15:55 | 28.50857 | -14.66621 | 16728 ft | 467 kts | 56° |
| 2026-05-07 15:55 | 28.52625 | -14.63555 | 17138 ft | 471 kts | 56° |
| 2026-05-07 15:55 | 28.54426 | -14.60431 | 17536 ft | 474 kts | 56° |
| 2026-05-07 15:55 | 28.56235 | -14.57290 | 17925 ft | 478 kts | 56° |
| 2026-05-07 15:56 | 28.58069 | -14.54104 | 18303 ft | 482 kts | 56° |
| 2026-05-07 15:56 | 28.59908 | -14.50906 | 18646 ft | 484 kts | 56° |
| 2026-05-07 15:56 | 28.61756 | -14.47689 | 18993 ft | 487 kts | 56° |
| 2026-05-07 15:56 | 28.63612 | -14.44457 | 19350 ft | 489 kts | 56° |
| 2026-05-07 15:57 | 28.65478 | -14.41205 | 19692 ft | 492 kts | 56° |
| 2026-05-07 15:57 | 28.67353 | -14.37935 | 20027 ft | 494 kts | 56° |
| 2026-05-07 15:57 | 28.69235 | -14.34649 | 20360 ft | 497 kts | 56° |
| 2026-05-07 15:57 | 28.71124 | -14.31348 | 20692 ft | 499 kts | 55° |
| 2026-05-07 15:58 | 28.73026 | -14.28024 | 21017 ft | 502 kts | 55° |
| 2026-05-07 15:58 | 28.74936 | -14.24682 | 21332 ft | 504 kts | 55° |
| 2026-05-07 15:58 | 28.76855 | -14.21322 | 21642 ft | 507 kts | 56° |
| 2026-05-07 15:58 | 28.78778 | -14.17950 | 22002 ft | 508 kts | 56° |
| 2026-05-07 15:59 | 28.80711 | -14.14561 | 22257 ft | 512 kts | 56° |
| 2026-05-07 15:59 | 28.82656 | -14.11146 | 22535 ft | 515 kts | 56° |
| 2026-05-07 15:59 | 28.84606 | -14.07719 | 22838 ft | 516 kts | 56° |
| 2026-05-07 15:59 | 28.85906 | -14.05435 | 23039 ft | 518 kts | 56° |
| 2026-05-07 16:00 | 28.87867 | -14.01985 | 23319 ft | 520 kts | 56° |
| 2026-05-07 16:00 | 28.89839 | -13.98512 | 23569 ft | 523 kts | 56° |
| 2026-05-07 16:00 | 28.91820 | -13.95020 | 23799 ft | 525 kts | 56° |
| 2026-05-07 16:00 | 28.93801 | -13.91527 | 24037 ft | 526 kts | 56° |
| 2026-05-07 16:01 | 28.95794 | -13.88008 | 24275 ft | 527 kts | 56° |
| 2026-05-07 16:01 | 28.97788 | -13.84484 | 24514 ft | 529 kts | 56° |
| 2026-05-07 16:01 | 28.99785 | -13.80953 | 24763 ft | 530 kts | 56° |
| 2026-05-07 16:01 | 29.01787 | -13.77409 | 24991 ft | 532 kts | 56° |
| 2026-05-07 16:02 | 29.03795 | -13.73852 | 25201 ft | 534 kts | 56° |
| 2026-05-07 16:02 | 29.05811 | -13.70274 | 25400 ft | 535 kts | 56° |
| 2026-05-07 16:02 | 29.07828 | -13.66694 | 25615 ft | 537 kts | 56° |
| 2026-05-07 16:02 | 29.09849 | -13.63104 | 25891 ft | 537 kts | 56° |
| 2026-05-07 16:03 | 29.11866 | -13.59514 | 26223 ft | 535 kts | 56° |
| 2026-05-07 16:03 | 29.13872 | -13.55942 | 26598 ft | 534 kts | 56° |
| 2026-05-07 16:03 | 29.15883 | -13.52360 | 26884 ft | 535 kts | 55° |
| 2026-05-07 16:03 | 29.17903 | -13.48793 | 27195 ft | 535 kts | 54° |
| 2026-05-07 16:04 | 29.20003 | -13.45282 | 27535 ft | 533 kts | 53° |
| 2026-05-07 16:04 | 29.22145 | -13.41824 | 27889 ft | 532 kts | 52° |
| 2026-05-07 16:04 | 29.24298 | -13.38383 | 28215 ft | 532 kts | 52° |
| 2026-05-07 16:04 | 29.26451 | -13.34931 | 28550 ft | 532 kts | 52° |
| 2026-05-07 16:05 | 29.28590 | -13.31475 | 28918 ft | 531 kts | 52° |
| 2026-05-07 16:05 | 29.30712 | -13.28018 | 29293 ft | 530 kts | 52° |
| 2026-05-07 16:05 | 29.32821 | -13.24560 | 29663 ft | 530 kts | 52° |
| 2026-05-07 16:05 | 29.34928 | -13.21095 | 30023 ft | 529 kts | 52° |
| 2026-05-07 16:06 | 29.37029 | -13.17633 | 30343 ft | 529 kts | 52° |
| 2026-05-07 16:06 | 29.39124 | -13.14177 | 30668 ft | 528 kts | 52° |
| 2026-05-07 16:06 | 29.41217 | -13.10725 | 31062 ft | 525 kts | 52° |
| 2026-05-07 16:06 | 29.43288 | -13.07306 | 31495 ft | 521 kts | 52° |
| 2026-05-07 16:07 | 29.45354 | -13.03894 | 31811 ft | 521 kts | 52° |
| 2026-05-07 16:07 | 29.47425 | -13.00475 | 32099 ft | 522 kts | 52° |
| 2026-05-07 16:07 | 29.49499 | -12.97048 | 32273 ft | 524 kts | 52° |
| 2026-05-07 16:07 | 29.51581 | -12.93605 | 32531 ft | 525 kts | 52° |
| 2026-05-07 16:08 | 29.53654 | -12.90169 | 32887 ft | 523 kts | 52° |
| 2026-05-07 16:08 | 29.55694 | -12.86786 | 33255 ft | 520 kts | 52° |
| 2026-05-07 16:08 | 29.57777 | -12.83330 | 33569 ft | 520 kts | 52° |
| 2026-05-07 16:08 | 29.59834 | -12.79915 | 33827 ft | 520 kts | 52° |
| 2026-05-07 16:09 | 29.61892 | -12.76493 | 34072 ft | 520 kts | 52° |
| 2026-05-07 16:09 | 29.63911 | -12.73134 | 34437 ft | 515 kts | 52° |
| 2026-05-07 16:09 | 29.65940 | -12.69753 | 34778 ft | 513 kts | 52° |
| 2026-05-07 16:09 | 29.67967 | -12.66376 | 34980 ft | 514 kts | 52° |
| 2026-05-07 16:10 | 29.69997 | -12.62990 | 35140 ft | 515 kts | 52° |
| 2026-05-07 16:10 | 29.72031 | -12.59596 | 35342 ft | 515 kts | 52° |
| 2026-05-07 16:10 | 29.74057 | -12.56211 | 35595 ft | 514 kts | 52° |
| 2026-05-07 16:10 | 29.76078 | -12.52816 | 35829 ft | 513 kts | 51° |
| 2026-05-07 16:11 | 29.78089 | -12.49426 | 36006 ft | 514 kts | 51° |
| 2026-05-07 16:11 | 29.82130 | -12.42598 | 36014 ft | 518 kts | 52° |
| 2026-05-07 16:12 | 29.86191 | -12.35721 | 36003 ft | 521 kts | 52° |
| 2026-05-07 16:12 | 29.90283 | -12.28785 | 35997 ft | 526 kts | 52° |
| 2026-05-07 16:13 | 29.94402 | -12.21785 | 35990 ft | 529 kts | 52° |
| 2026-05-07 16:13 | 29.98531 | -12.14757 | 35980 ft | 529 kts | 52° |
| 2026-05-07 16:14 | 30.02941 | -12.08026 | 35975 ft | 521 kts | 40° |
| 2026-05-07 16:14 | 30.08140 | -12.02236 | 35980 ft | 518 kts | 38° |
| 2026-05-07 16:15 | 30.13359 | -11.96557 | 35968 ft | 514 kts | 38° |
| 2026-05-07 16:15 | 30.18534 | -11.90840 | 35982 ft | 515 kts | 38° |
| 2026-05-07 16:16 | 30.23678 | -11.85079 | 35982 ft | 515 kts | 39° |
| 2026-05-07 16:16 | 30.28812 | -11.79298 | 35980 ft | 515 kts | 39° |
| 2026-05-07 16:17 | 30.33947 | -11.73510 | 35977 ft | 516 kts | 39° |
| 2026-05-07 16:17 | 30.39086 | -11.67713 | 35975 ft | 516 kts | 39° |
| 2026-05-07 16:18 | 30.44225 | -11.61908 | 36010 ft | 516 kts | 39° |
| 2026-05-07 16:18 | 30.49372 | -11.56088 | 35984 ft | 518 kts | 39° |
| 2026-05-07 16:19 | 30.54528 | -11.50246 | 35980 ft | 518 kts | 39° |
| 2026-05-07 16:19 | 30.59686 | -11.44392 | 35974 ft | 519 kts | 39° |
| 2026-05-07 16:20 | 30.64847 | -11.38527 | 35973 ft | 519 kts | 39° |
| 2026-05-07 16:20 | 30.70008 | -11.32651 | 35974 ft | 519 kts | 39° |
| 2026-05-07 16:21 | 30.75146 | -11.26791 | 35985 ft | 514 kts | 39° |
| 2026-05-07 16:21 | 30.80230 | -11.20983 | 35979 ft | 512 kts | 39° |
| 2026-05-07 16:22 | 30.85322 | -11.15162 | 35971 ft | 513 kts | 39° |
| 2026-05-07 16:22 | 30.90414 | -11.09330 | 35975 ft | 514 kts | 39° |
| 2026-05-07 16:23 | 30.95510 | -11.03485 | 35972 ft | 514 kts | 40° |
| 2026-05-07 16:23 | 31.00603 | -10.97631 | 35967 ft | 514 kts | 40° |
| 2026-05-07 16:24 | 31.05696 | -10.91768 | 35964 ft | 513 kts | 40° |
| 2026-05-07 16:24 | 31.10772 | -10.85916 | 35970 ft | 513 kts | 40° |
| 2026-05-07 16:25 | 31.15794 | -10.80115 | 35948 ft | 508 kts | 40° |
| 2026-05-07 16:25 | 31.20819 | -10.74300 | 35956 ft | 504 kts | 40° |
| 2026-05-07 16:26 | 31.25786 | -10.68549 | 35959 ft | 502 kts | 40° |
| 2026-05-07 16:26 | 31.30701 | -10.62848 | 35960 ft | 500 kts | 40° |
| 2026-05-07 16:27 | 31.35635 | -10.57117 | 35955 ft | 502 kts | 40° |
| 2026-05-07 16:27 | 31.40626 | -10.51314 | 35964 ft | 508 kts | 40° |
| 2026-05-07 16:28 | 31.45629 | -10.45481 | 35958 ft | 508 kts | 40° |
| 2026-05-07 16:28 | 31.50623 | -10.39648 | 35949 ft | 506 kts | 40° |
| 2026-05-07 16:29 | 31.55619 | -10.33807 | 35971 ft | 510 kts | 40° |
| 2026-05-07 16:29 | 31.60660 | -10.27906 | 35966 ft | 514 kts | 40° |
| 2026-05-07 16:30 | 31.65727 | -10.21961 | 35958 ft | 516 kts | 40° |
| 2026-05-07 16:30 | 31.70794 | -10.16005 | 35956 ft | 514 kts | 40° |
| 2026-05-07 16:31 | 31.75829 | -10.10075 | 35942 ft | 511 kts | 40° |
| 2026-05-07 16:31 | 31.80838 | -10.04169 | 35949 ft | 509 kts | 40° |
| 2026-05-07 16:32 | 31.85834 | -9.98272 | 35958 ft | 509 kts | 40° |
| 2026-05-07 16:32 | 31.90829 | -9.92365 | 35948 ft | 509 kts | 40° |
| 2026-05-07 16:33 | 31.95831 | -9.86440 | 35950 ft | 510 kts | 40° |
| 2026-05-07 16:33 | 32.00844 | -9.80493 | 35950 ft | 512 kts | 41° |
| 2026-05-07 16:34 | 32.05857 | -9.74533 | 35951 ft | 513 kts | 41° |
| 2026-05-07 16:34 | 32.10660 | -9.68815 | 35947 ft | 513 kts | 41° |
| 2026-05-07 16:35 | 32.15682 | -9.62827 | 35942 ft | 513 kts | 41° |
| 2026-05-07 16:35 | 32.20702 | -9.56830 | 35947 ft | 514 kts | 41° |
| 2026-05-07 16:36 | 32.25724 | -9.50822 | 35940 ft | 514 kts | 41° |
| 2026-05-07 16:36 | 32.30752 | -9.44797 | 35944 ft | 514 kts | 41° |
| 2026-05-07 16:37 | 32.35758 | -9.38785 | 35925 ft | 512 kts | 41° |
| 2026-05-07 16:37 | 32.40750 | -9.32782 | 35942 ft | 511 kts | 41° |
| 2026-05-07 16:38 | 32.45735 | -9.26778 | 35939 ft | 512 kts | 41° |
| 2026-05-07 16:38 | 32.50722 | -9.20763 | 35940 ft | 512 kts | 41° |
| 2026-05-07 16:39 | 32.55706 | -9.14740 | 35970 ft | 512 kts | 41° |
| 2026-05-07 16:39 | 32.60699 | -9.08694 | 35932 ft | 513 kts | 41° |
| 2026-05-07 16:40 | 32.65643 | -9.02697 | 35934 ft | 510 kts | 41° |
| 2026-05-07 16:40 | 32.70593 | -8.96684 | 35935 ft | 509 kts | 41° |
| 2026-05-07 16:41 | 32.75541 | -8.90664 | 35944 ft | 509 kts | 41° |
| 2026-05-07 16:41 | 32.80490 | -8.84634 | 35943 ft | 509 kts | 41° |
| 2026-05-07 16:42 | 32.85436 | -8.78594 | 35968 ft | 510 kts | 41° |
| 2026-05-07 16:42 | 32.90387 | -8.72539 | 35946 ft | 511 kts | 41° |
| 2026-05-07 16:43 | 32.95340 | -8.66470 | 35946 ft | 511 kts | 41° |
| 2026-05-07 16:43 | 33.00288 | -8.60396 | 35936 ft | 511 kts | 41° |
| 2026-05-07 16:44 | 33.04405 | -8.55335 | 35940 ft | 511 kts | 41° |
| 2026-05-07 16:44 | 33.09347 | -8.49247 | 35936 ft | 511 kts | 41° |
| 2026-05-07 16:45 | 33.14291 | -8.43146 | 35943 ft | 512 kts | 41° |
| 2026-05-07 16:45 | 33.19287 | -8.37101 | 35926 ft | 509 kts | 37° |
| 2026-05-07 16:46 | 33.25024 | -8.32337 | 35938 ft | 500 kts | 26° |
| 2026-05-07 16:46 | 33.30953 | -8.28004 | 35939 ft | 499 kts | 26° |
| 2026-05-07 16:47 | 33.36854 | -8.23643 | 35938 ft | 499 kts | 27° |
| 2026-05-07 16:47 | 33.42726 | -8.19230 | 35958 ft | 499 kts | 26° |
| 2026-05-07 16:48 | 33.48637 | -8.14757 | 35952 ft | 505 kts | 26° |
| 2026-05-07 16:48 | 33.54564 | -8.10261 | 35956 ft | 509 kts | 27° |
| 2026-05-07 16:49 | 33.60559 | -8.05706 | 35944 ft | 510 kts | 27° |
| 2026-05-07 16:49 | 33.66538 | -8.01156 | 35942 ft | 509 kts | 27° |
| 2026-05-07 16:50 | 33.72517 | -7.96601 | 35949 ft | 509 kts | 27° |
| 2026-05-07 16:50 | 33.78494 | -7.92041 | 35955 ft | 509 kts | 27° |
| 2026-05-07 16:51 | 33.84473 | -7.87472 | 35947 ft | 509 kts | 27° |
| 2026-05-07 16:51 | 33.90451 | -7.82896 | 35945 ft | 509 kts | 27° |
| 2026-05-07 16:52 | 33.96430 | -7.78311 | 35946 ft | 509 kts | 27° |
| 2026-05-07 16:52 | 34.02415 | -7.73714 | 35951 ft | 510 kts | 27° |
| 2026-05-07 16:53 | 34.08403 | -7.69106 | 35953 ft | 511 kts | 27° |
| 2026-05-07 16:53 | 34.14400 | -7.64484 | 35950 ft | 511 kts | 27° |
| 2026-05-07 16:54 | 34.20392 | -7.59858 | 35948 ft | 511 kts | 27° |
| 2026-05-07 16:54 | 34.26356 | -7.55242 | 35960 ft | 508 kts | 26° |
| 2026-05-07 16:55 | 34.32328 | -7.50617 | 35959 ft | 511 kts | 27° |
| 2026-05-07 16:55 | 34.38322 | -7.45967 | 35954 ft | 512 kts | 27° |
| 2026-05-07 16:56 | 34.44309 | -7.41312 | 35949 ft | 511 kts | 27° |
| 2026-05-07 16:56 | 34.53272 | -7.34328 | 35964 ft | 510 kts | 27° |
| 2026-05-07 16:57 | 34.59248 | -7.29662 | 35951 ft | 511 kts | 27° |
| 2026-05-07 16:57 | 34.65230 | -7.24984 | 35943 ft | 512 kts | 27° |
| 2026-05-07 16:58 | 34.71212 | -7.20295 | 35951 ft | 511 kts | 27° |
| 2026-05-07 16:58 | 34.77159 | -7.15626 | 35942 ft | 508 kts | 27° |
| 2026-05-07 16:59 | 34.83100 | -7.10956 | 35950 ft | 510 kts | 26° |
| 2026-05-07 16:59 | 34.89021 | -7.06295 | 35949 ft | 511 kts | 27° |
| 2026-05-07 17:00 | 34.94995 | -7.01581 | 35950 ft | 512 kts | 27° |
| 2026-05-07 17:00 | 35.00968 | -6.96858 | 35949 ft | 512 kts | 27° |
| 2026-05-07 17:01 | 35.06958 | -6.92114 | 35960 ft | 513 kts | 27° |
| 2026-05-07 17:01 | 35.12947 | -6.87362 | 35951 ft | 513 kts | 27° |
| 2026-05-07 17:02 | 35.18927 | -6.82608 | 35941 ft | 512 kts | 27° |
| 2026-05-07 17:02 | 35.24864 | -6.77875 | 35932 ft | 508 kts | 27° |
| 2026-05-07 17:03 | 35.30781 | -6.73137 | 35939 ft | 510 kts | 30° |
| 2026-05-07 17:03 | 35.35977 | -6.67099 | 35944 ft | 523 kts | 48° |
| 2026-05-07 17:04 | 35.39813 | -6.59474 | 35945 ft | 528 kts | 58° |
| 2026-05-07 17:04 | 35.43393 | -6.51604 | 35920 ft | 528 kts | 57° |
| 2026-05-07 17:05 | 35.47165 | -6.43878 | 35920 ft | 527 kts | 54° |
| 2026-05-07 17:05 | 35.51074 | -6.36267 | 35919 ft | 527 kts | 54° |
| 2026-05-07 17:06 | 35.54969 | -6.28649 | 35919 ft | 527 kts | 54° |
| 2026-05-07 17:06 | 35.58832 | -6.20996 | 35915 ft | 527 kts | 55° |
| 2026-05-07 17:07 | 35.62684 | -6.13323 | 35919 ft | 528 kts | 55° |
| 2026-05-07 17:07 | 35.66536 | -6.05640 | 35916 ft | 527 kts | 54° |
| 2026-05-07 17:08 | 35.70373 | -5.97970 | 35907 ft | 526 kts | 54° |
| 2026-05-07 17:08 | 35.74158 | -5.90260 | 35909 ft | 527 kts | 58° |
| 2026-05-07 17:09 | 35.77380 | -5.82130 | 35918 ft | 529 kts | 62° |
| 2026-05-07 17:09 | 35.80477 | -5.73915 | 35916 ft | 529 kts | 62° |
| 2026-05-07 17:10 | 35.83669 | -5.65760 | 35912 ft | 528 kts | 60° |
| 2026-05-07 17:10 | 35.86944 | -5.57662 | 35925 ft | 527 kts | 60° |
| 2026-05-07 17:11 | 35.90237 | -5.49583 | 35933 ft | 527 kts | 60° |
| 2026-05-07 17:11 | 35.93512 | -5.41480 | 35938 ft | 527 kts | 60° |
| 2026-05-07 17:12 | 35.96766 | -5.33378 | 35941 ft | 527 kts | 60° |
| 2026-05-07 17:12 | 36.00022 | -5.25259 | 35937 ft | 527 kts | 60° |
| 2026-05-07 17:13 | 36.03344 | -5.17189 | 35930 ft | 527 kts | 58° |
| 2026-05-07 17:13 | 36.06711 | -5.09217 | 35913 ft | 527 kts | 59° |
| 2026-05-07 17:14 | 36.10097 | -5.01120 | 35913 ft | 527 kts | 59° |
| 2026-05-07 17:14 | 36.13425 | -4.93114 | 35922 ft | 526 kts | 58° |
| 2026-05-07 17:15 | 36.17533 | -4.85752 | 35915 ft | 515 kts | 40° |
| 2026-05-07 17:15 | 36.22532 | -4.79429 | 35913 ft | 514 kts | 39° |
| 2026-05-07 17:16 | 36.27551 | -4.73120 | 35909 ft | 515 kts | 40° |
| 2026-05-07 17:16 | 36.32535 | -4.66737 | 35910 ft | 515 kts | 40° |
| 2026-05-07 17:17 | 36.37492 | -4.60316 | 35907 ft | 515 kts | 40° |
| 2026-05-07 17:17 | 36.42444 | -4.53878 | 35936 ft | 515 kts | 40° |
| 2026-05-07 17:18 | 36.47391 | -4.47442 | 35915 ft | 515 kts | 40° |
| 2026-05-07 17:18 | 36.52338 | -4.40998 | 35912 ft | 515 kts | 40° |
| 2026-05-07 17:19 | 36.57285 | -4.34543 | 35912 ft | 515 kts | 40° |
| 2026-05-07 17:19 | 36.62226 | -4.28080 | 35912 ft | 515 kts | 40° |
| 2026-05-07 17:20 | 36.67166 | -4.21608 | 35913 ft | 515 kts | 40° |
| 2026-05-07 17:20 | 36.72100 | -4.15129 | 35920 ft | 516 kts | 40° |
| 2026-05-07 17:21 | 36.77036 | -4.08633 | 35921 ft | 516 kts | 40° |
| 2026-05-07 17:21 | 36.81972 | -4.02125 | 35917 ft | 516 kts | 40° |
| 2026-05-07 17:22 | 36.86903 | -3.95609 | 35923 ft | 516 kts | 40° |
| 2026-05-07 17:22 | 36.91795 | -3.89133 | 35915 ft | 515 kts | 40° |
| 2026-05-07 17:23 | 36.96716 | -3.82607 | 35923 ft | 517 kts | 40° |
| 2026-05-07 17:23 | 37.01640 | -3.76061 | 35912 ft | 517 kts | 40° |
| 2026-05-07 17:24 | 37.06560 | -3.69501 | 35912 ft | 516 kts | 40° |
| 2026-05-07 17:24 | 37.11475 | -3.62946 | 35928 ft | 516 kts | 40° |
| 2026-05-07 17:25 | 37.16460 | -3.56494 | 35920 ft | 515 kts | 39° |
| 2026-05-07 17:25 | 37.21467 | -3.50057 | 35936 ft | 516 kts | 39° |
| 2026-05-07 17:26 | 37.26454 | -3.43602 | 35941 ft | 515 kts | 39° |
| 2026-05-07 17:26 | 37.31430 | -3.37139 | 35926 ft | 514 kts | 39° |
| 2026-05-07 17:27 | 37.36392 | -3.30682 | 35938 ft | 513 kts | 39° |
| 2026-05-07 17:27 | 37.41352 | -3.24215 | 35929 ft | 513 kts | 39° |
| 2026-05-07 17:28 | 37.46299 | -3.17750 | 35944 ft | 513 kts | 39° |
| 2026-05-07 17:28 | 37.51250 | -3.11270 | 35939 ft | 513 kts | 39° |
| 2026-05-07 17:29 | 37.56195 | -3.04781 | 35954 ft | 514 kts | 39° |
| 2026-05-07 17:29 | 37.61146 | -2.98284 | 35948 ft | 514 kts | 39° |
| 2026-05-07 17:30 | 37.65271 | -2.92877 | 35938 ft | 514 kts | 39° |
| 2026-05-07 17:30 | 37.70224 | -2.86365 | 35952 ft | 515 kts | 39° |
| 2026-05-07 17:31 | 37.75181 | -2.79833 | 35951 ft | 515 kts | 39° |
| 2026-05-07 17:31 | 37.80127 | -2.73288 | 35943 ft | 515 kts | 39° |
| 2026-05-07 17:32 | 37.85063 | -2.66732 | 35935 ft | 513 kts | 39° |
| 2026-05-07 17:32 | 37.89988 | -2.60174 | 35957 ft | 516 kts | 39° |
| 2026-05-07 17:33 | 37.94944 | -2.53559 | 35959 ft | 517 kts | 39° |
| 2026-05-07 17:33 | 37.99879 | -2.46964 | 35947 ft | 515 kts | 39° |
| 2026-05-07 17:34 | 38.04809 | -2.40384 | 35973 ft | 515 kts | 39° |
| 2026-05-07 17:34 | 38.09739 | -2.33781 | 35968 ft | 516 kts | 39° |
| 2026-05-07 17:35 | 38.14674 | -2.27154 | 35987 ft | 517 kts | 39° |
| 2026-05-07 17:35 | 38.19879 | -2.20998 | 35976 ft | 501 kts | 25° |
| 2026-05-07 17:36 | 38.22852 | -2.18813 | 35986 ft | 487 kts | 16° |
| 2026-05-07 17:36 | 38.25957 | -2.17200 | 35972 ft | 476 kts | 7° |
| 2026-05-07 17:36 | 38.32316 | -2.15293 | 35976 ft | 469 kts | 3° |
| 2026-05-07 17:37 | 38.38607 | -2.13450 | 35973 ft | 464 kts | 3° |
| 2026-05-07 17:37 | 38.44855 | -2.11535 | 35975 ft | 460 kts | 4° |
| 2026-05-07 17:38 | 38.51010 | -2.08982 | 35645 ft | 483 kts | 20° |
| 2026-05-07 17:38 | 38.53791 | -2.06478 | 35408 ft | 497 kts | 34° |
| 2026-05-07 17:38 | 38.56150 | -2.03166 | 35180 ft | 509 kts | 44° |
| 2026-05-07 17:39 | 38.58304 | -1.99564 | 34950 ft | 511 kts | 45° |
| 2026-05-07 17:39 | 38.60432 | -1.95920 | 34722 ft | 512 kts | 45° |
| 2026-05-07 17:39 | 38.62570 | -1.92283 | 34134 ft | 512 kts | 44° |
| 2026-05-07 17:39 | 38.64733 | -1.88671 | 33467 ft | 511 kts | 44° |
| 2026-05-07 17:40 | 38.66913 | -1.85082 | 32709 ft | 511 kts | 43° |
| 2026-05-07 17:40 | 38.69100 | -1.81503 | 31979 ft | 511 kts | 44° |
| 2026-05-07 17:40 | 38.71289 | -1.77918 | 31224 ft | 511 kts | 44° |
| 2026-05-07 17:40 | 38.73476 | -1.74325 | 30453 ft | 512 kts | 44° |
| 2026-05-07 17:41 | 38.75673 | -1.70716 | 29559 ft | 513 kts | 44° |
| 2026-05-07 17:41 | 38.77865 | -1.67110 | 28631 ft | 513 kts | 45° |
| 2026-05-07 17:41 | 38.80047 | -1.63513 | 27736 ft | 512 kts | 46° |
| 2026-05-07 17:41 | 38.82233 | -1.59902 | 26779 ft | 512 kts | 47° |
| 2026-05-07 17:42 | 38.84418 | -1.56290 | 25838 ft | 512 kts | 47° |
| 2026-05-07 17:42 | 38.86583 | -1.52703 | 25162 ft | 505 kts | 48° |
| 2026-05-07 17:42 | 38.88717 | -1.49162 | 24457 ft | 500 kts | 50° |
| 2026-05-07 17:42 | 38.90829 | -1.45657 | 23886 ft | 491 kts | 51° |
| 2026-05-07 17:43 | 38.92912 | -1.42194 | 23052 ft | 487 kts | 52° |
| 2026-05-07 17:43 | 38.94956 | -1.38793 | 22571 ft | 475 kts | 52° |
| 2026-05-07 17:43 | 38.96952 | -1.35466 | 21930 ft | 467 kts | 52° |
| 2026-05-07 17:43 | 38.98926 | -1.32174 | 21181 ft | 463 kts | 52° |
| 2026-05-07 17:44 | 39.00882 | -1.28915 | 20450 ft | 459 kts | 51° |
| 2026-05-07 17:44 | 39.02709 | -1.25589 | 19748 ft | 454 kts | 61° |
| 2026-05-07 17:44 | 39.03860 | -1.21830 | 19103 ft | 449 kts | 71° |
| 2026-05-07 17:44 | 39.04850 | -1.18052 | 18497 ft | 443 kts | 71° |
| 2026-05-07 17:45 | 39.05848 | -1.14323 | 17786 ft | 439 kts | 71° |
| 2026-05-07 17:45 | 39.06856 | -1.10628 | 17041 ft | 436 kts | 70° |
| 2026-05-07 17:45 | 39.07867 | -1.06967 | 16348 ft | 432 kts | 70° |
| 2026-05-07 17:45 | 39.08873 | -1.03350 | 15705 ft | 427 kts | 70° |
| 2026-05-07 17:46 | 39.09869 | -0.99775 | 15069 ft | 422 kts | 70° |
| 2026-05-07 17:46 | 39.10855 | -0.96238 | 14435 ft | 418 kts | 70° |
| 2026-05-07 17:46 | 39.11831 | -0.92732 | 13825 ft | 414 kts | 70° |
| 2026-05-07 17:46 | 39.12793 | -0.89267 | 13177 ft | 409 kts | 70° |
| 2026-05-07 17:47 | 39.13742 | -0.85838 | 12595 ft | 403 kts | 70° |
| 2026-05-07 17:47 | 39.14677 | -0.82458 | 11991 ft | 397 kts | 70° |
| 2026-05-07 17:47 | 39.15600 | -0.79116 | 11361 ft | 394 kts | 70° |
| 2026-05-07 17:47 | 39.16506 | -0.75832 | 11018 ft | 382 kts | 70° |
| 2026-05-07 17:48 | 39.17376 | -0.72667 | 10896 ft | 366 kts | 70° |
| 2026-05-07 17:48 | 39.18206 | -0.69642 | 10798 ft | 351 kts | 70° |
| 2026-05-07 17:48 | 39.19005 | -0.66734 | 10706 ft | 337 kts | 70° |
| 2026-05-07 17:48 | 39.19773 | -0.63935 | 10619 ft | 324 kts | 70° |
| 2026-05-07 17:49 | 39.20510 | -0.61242 | 10539 ft | 312 kts | 70° |
| 2026-05-07 17:49 | 39.21220 | -0.58651 | 10456 ft | 301 kts | 69° |
| 2026-05-07 17:49 | 39.21905 | -0.56146 | 10343 ft | 292 kts | 69° |
| 2026-05-07 17:49 | 39.22578 | -0.53687 | 10094 ft | 289 kts | 69° |
| 2026-05-07 17:50 | 39.23246 | -0.51245 | 9792 ft | 288 kts | 69° |
| 2026-05-07 17:50 | 39.23962 | -0.48844 | 9476 ft | 286 kts | 60° |
| 2026-05-07 17:50 | 39.25249 | -0.46932 | 9164 ft | 282 kts | 43° |
| 2026-05-07 17:50 | 39.26451 | -0.44945 | 8843 ft | 281 kts | 58° |
| 2026-05-07 17:51 | 39.27456 | -0.42789 | 8552 ft | 280 kts | 57° |
| 2026-05-07 17:51 | 39.28497 | -0.40678 | 8259 ft | 278 kts | 56° |
| 2026-05-07 17:51 | 39.29553 | -0.38615 | 7922 ft | 273 kts | 56° |
| 2026-05-07 17:51 | 39.30606 | -0.36587 | 7420 ft | 272 kts | 56° |
| 2026-05-07 17:52 | 39.31658 | -0.34571 | 6956 ft | 270 kts | 56° |
| 2026-05-07 17:52 | 39.32695 | -0.32553 | 6559 ft | 268 kts | 57° |
| 2026-05-07 17:52 | 39.33702 | -0.30551 | 6145 ft | 264 kts | 57° |
| 2026-05-07 17:52 | 39.34699 | -0.28562 | 5670 ft | 263 kts | 57° |
| 2026-05-07 17:53 | 39.35691 | -0.26581 | 5177 ft | 263 kts | 57° |
| 2026-05-07 17:53 | 39.36674 | -0.24631 | 4725 ft | 261 kts | 55° |
| 2026-05-07 17:53 | 39.38006 | -0.23099 | 4276 ft | 260 kts | 23° |
| 2026-05-07 17:53 | 39.39786 | -0.22871 | 3862 ft | 255 kts | 347° |
| 2026-05-07 17:54 | 39.41251 | -0.24003 | 3444 ft | 250 kts | 309° |
| 2026-05-07 17:54 | 39.41848 | -0.26000 | 3342 ft | 235 kts | 276° |
| 2026-05-07 17:54 | 39.41983 | -0.28047 | 3225 ft | 223 kts | 277° |
| 2026-05-07 17:54 | 39.42303 | -0.29959 | 3045 ft | 215 kts | 288° |
| 2026-05-07 17:55 | 39.42803 | -0.31751 | 2786 ft | 210 kts | 292° |
| 2026-05-07 17:55 | 39.43399 | -0.33461 | 2490 ft | 205 kts | 296° |
| 2026-05-07 17:55 | 39.44006 | -0.35069 | 2234 ft | 192 kts | 296° |
| 2026-05-07 17:55 | 39.44575 | -0.36580 | 1970 ft | 182 kts | 296° |
| 2026-05-07 17:56 | 39.45108 | -0.37999 | 1760 ft | 167 kts | 296° |
| 2026-05-07 17:56 | 39.45599 | -0.39305 | 1522 ft | 158 kts | 296° |
| 2026-05-07 17:56 | 39.46071 | -0.40565 | 1310 ft | 154 kts | 296° |
| 2026-05-07 17:56 | 39.46544 | -0.41821 | 1109 ft | 157 kts | 296° |
| 2026-05-07 17:57 | 39.47015 | -0.43074 | 901 ft | 154 kts | 297° |
| 2026-05-07 17:57 | 39.47325 | -0.43895 | 751 ft | 147 kts | 298° |
| 2026-05-07 17:57 | 39.47914 | -0.45463 | 510 ft | 146 kts | 298° |
| 2026-05-07 17:57 | 39.48338 | -0.46611 | 319 ft | 140 kts | 299° |
| 2026-05-07 17:58 | 39.48760 | -0.47696 | 214 ft | 123 kts | 297° |
| 2026-05-07 17:58 | 39.49073 | -0.48531 | 213 ft | 81 kts | 295° |
| 2026-05-07 17:58 | 39.49257 | -0.49017 | 213 ft | 39 kts | 296° |
| 2026-05-07 17:58 | 39.49431 | -0.49262 | 208 ft | 32 kts | 323° |
| 2026-05-07 17:59 | 39.49480 | -0.49306 | 208 ft | 0 kts | 326° |
| 2026-05-07 17:59 | 39.49483 | -0.49309 | 210 ft | 2 kts | 328° |
| 2026-05-07 17:59 | 39.49524 | -0.49312 | 210 ft | 10 kts | 24° |
| 2026-05-07 18:00 | 39.49534 | -0.49207 | 215 ft | 17 kts | 118° |
| 2026-05-07 18:00 | 39.49466 | -0.49035 | 214 ft | 25 kts | 116° |
| 2026-05-07 18:00 | 39.49379 | -0.48807 | 208 ft | 31 kts | 116° |
| 2026-05-07 18:00 | 39.49284 | -0.48557 | 218 ft | 27 kts | 116° |
| 2026-05-07 18:01 | 39.49213 | -0.48374 | 218 ft | 21 kts | 117° |
| 2026-05-07 18:01 | 39.49150 | -0.48204 | 208 ft | 21 kts | 115° |
| 2026-05-07 18:01 | 39.49086 | -0.48038 | 213 ft | 20 kts | 116° |
| 2026-05-07 18:01 | 39.49031 | -0.47877 | 211 ft | 19 kts | 102° |
| 2026-05-07 18:02 | 39.49033 | -0.47818 | 208 ft | 6 kts | 77° |
| 2026-05-07 18:02 | 39.49088 | -0.47763 | 209 ft | 13 kts | 25° |
| 2026-05-07 18:02 | 39.49169 | -0.47711 | 214 ft | 13 kts | 26° |
| 2026-05-07 18:03 | 39.49250 | -0.47662 | 210 ft | 13 kts | 25° |
| 2026-05-07 18:03 | 39.49307 | -0.47616 | 209 ft | 5 kts | 83° |
| 2026-05-07 18:03 | 39.49296 | -0.47579 | 208 ft | 2 kts | 115° |
| 2026-05-07 18:03 | 39.49293 | -0.47570 | 213 ft | 0 kts | 114° |